Time;durP1;ratioP1;P1;durP2;ratioP2;P2;SDS_P1;SDS_P2;PMS_P1;PMS_P2;Temp;Humidity;BMP_temperature;BMP_pressure;BME280_temperature;BME280_humidity;BME280_pressure;Samples;Min_cycle;Max_cycle;Signal;HPM_P1;HPM_P2
2021/12/21 00:00:46;;;;;;;6.10;2.30;;;19.70;48.50;;;;;;5054600;28;20111;-90
2021/12/21 00:03:12;;;;;;;4.40;2.22;;;19.60;48.50;;;;;;5054787;28;20045;-90
2021/12/21 00:05:39;;;;;;;7.00;2.40;;;19.60;48.50;;;;;;5054418;28;20052;-90
2021/12/21 00:08:10;;;;;;;3.40;2.15;;;19.60;48.60;;;;;;5054628;28;20029;-90
2021/12/21 00:10:36;;;;;;;5.25;2.30;;;19.60;48.60;;;;;;5055510;28;20082;-90
2021/12/21 00:13:23;;;;;;;3.88;2.13;;;19.50;48.70;;;;;;5054623;28;20037;-90
2021/12/21 00:15:59;;;;;;;3.22;2.15;;;19.50;48.60;;;;;;5055530;28;20044;-90
2021/12/21 00:18:36;;;;;;;3.08;2.10;;;19.50;48.60;;;;;;5054235;28;20028;-89
2021/12/21 00:21:30;;;;;;;3.28;2.17;;;19.50;48.70;;;;;;5054441;28;20021;-90
2021/12/21 00:24:00;;;;;;;4.22;2.35;;;19.40;48.60;;;;;;5055570;28;20021;-89
2021/12/21 00:26:25;;;;;;;3.13;2.00;;;19.40;48.70;;;;;;5038186;28;20114;-89
2021/12/21 00:31:17;;;;;;;2.50;1.92;;;19.40;48.80;;;;;;5054301;28;20033;-90
2021/12/21 00:33:45;;;;;;;3.85;2.03;;;19.40;48.80;;;;;;5055138;28;20025;-90
2021/12/21 00:36:12;;;;;;;4.50;2.30;;;19.30;48.80;;;;;;5055318;28;20355;-90
2021/12/21 00:38:37;;;;;;;4.55;2.10;;;19.30;48.80;;;;;;5053923;28;20108;-90
2021/12/21 00:41:03;;;;;;;3.90;2.25;;;19.30;48.90;;;;;;5055127;28;20103;-89
2021/12/21 00:43:29;;;;;;;4.07;2.40;;;19.20;48.80;;;;;;5055205;28;20082;-89
2021/12/21 00:45:55;;;;;;;3.75;1.90;;;19.20;48.80;;;;;;5055037;28;20032;-89
2021/12/21 00:48:27;;;;;;;5.13;2.00;;;19.20;48.80;;;;;;5055022;28;20064;-90
2021/12/21 00:50:52;;;;;;;5.10;2.20;;;19.20;48.90;;;;;;5053781;28;20032;-89
2021/12/21 00:53:18;;;;;;;3.80;1.90;;;19.20;48.90;;;;;;5054916;28;20103;-89
2021/12/21 00:55:44;;;;;;;3.55;2.20;;;19.10;48.90;;;;;;5053566;28;20024;-89
2021/12/21 00:58:09;;;;;;;5.20;2.30;;;19.10;48.80;;;;;;5053535;28;20021;-89
2021/12/21 01:00:35;;;;;;;4.70;2.30;;;19.10;48.80;;;;;;5053573;28;20025;-90
2021/12/21 01:03:07;;;;;;;4.05;2.20;;;19.10;48.90;;;;;;5054735;28;20021;-89
2021/12/21 01:08:28;;;;;;;3.35;2.10;;;19.00;48.90;;;;;;5053084;28;20025;-89
2021/12/21 01:11:08;;;;;;;3.80;2.28;;;19.00;49.00;;;;;;5053247;28;20112;-89
2021/12/21 01:21:40;;;;;;;3.60;1.95;;;18.90;49.10;;;;;;5054532;28;20028;-89
2021/12/21 01:26:47;;;;;;;3.20;1.90;;;18.80;49.10;;;;;;5054371;28;20018;-89
2021/12/21 01:29:33;;;;;;;4.07;2.05;;;18.80;49.20;;;;;;5053133;28;20398;-89
2021/12/21 01:34:43;;;;;;;3.42;1.90;;;18.70;49.10;;;;;;5054168;28;20025;-90
2021/12/21 01:37:23;;;;;;;2.95;2.00;;;18.70;49.10;;;;;;5052845;28;20094;-89
2021/12/21 01:40:15;;;;;;;3.03;2.17;;;18.70;49.20;;;;;;5052811;28;20078;-89
2021/12/21 01:50:50;;;;;;;3.63;1.88;;;18.60;49.30;;;;;;5053899;28;20032;-89
2021/12/21 01:53:15;;;;;;;3.53;2.13;;;18.60;49.40;;;;;;5052616;28;20017;-89
2021/12/21 01:55:42;;;;;;;3.03;1.98;;;18.60;49.30;;;;;;5053793;28;20029;-89
2021/12/21 01:58:08;;;;;;;4.22;2.35;;;18.50;49.40;;;;;;5052552;28;20176;-89
2021/12/21 02:00:34;;;;;;;3.30;2.10;;;18.50;49.30;;;;;;5052382;28;20062;-89
2021/12/21 02:03:02;;;;;;;4.35;1.90;;;18.50;49.40;;;;;;5052533;28;20465;-89
2021/12/21 02:05:28;;;;;;;3.22;1.92;;;18.50;49.40;;;;;;5052772;28;20021;-89
2021/12/21 02:07:54;;;;;;;3.40;2.25;;;18.50;49.40;;;;;;5052392;28;20119;-89
2021/12/21 02:10:20;;;;;;;3.95;2.17;;;18.40;49.40;;;;;;5051977;28;20159;-88
2021/12/21 02:12:46;;;;;;;3.67;2.20;;;18.40;49.40;;;;;;5053600;28;20101;-89
2021/12/21 02:15:12;;;;;;;3.53;2.13;;;18.40;49.50;;;;;;5051899;28;20067;-89
2021/12/21 02:20:40;;;;;;;2.92;2.08;;;18.40;49.50;;;;;;5052834;28;20028;-89
2021/12/21 02:23:15;;;;;;;3.25;2.00;;;18.30;49.60;;;;;;5053513;28;20474;-89
2021/12/21 02:30:55;;;;;;;3.10;2.03;;;18.30;49.70;;;;;;5053211;28;20040;-89
2021/12/21 02:33:22;;;;;;;2.58;1.88;;;18.30;49.60;;;;;;5051794;28;20052;-89
2021/12/21 02:35:49;;;;;;;2.55;2.05;;;18.20;49.60;;;;;;5052933;28;20053;-89
2021/12/21 02:38:14;;;;;;;2.55;1.85;;;18.20;49.60;;;;;;5051641;28;20427;-89
2021/12/21 02:40:41;;;;;;;2.72;1.90;;;18.20;49.70;;;;;;5052643;28;20112;-89
2021/12/21 02:43:09;;;;;;;3.08;1.80;;;18.20;49.70;;;;;;5052975;28;20029;-89
2021/12/21 02:45:34;;;;;;;2.53;1.80;;;18.20;49.70;;;;;;5051466;28;20021;-89
2021/12/21 02:48:00;;;;;;;3.45;1.95;;;18.10;49.70;;;;;;5034885;28;20061;-89
2021/12/21 02:50:26;;;;;;;2.70;1.95;;;18.10;49.80;;;;;;5051393;28;20021;-89
2021/12/21 02:52:52;;;;;;;3.15;1.83;;;18.10;49.80;;;;;;5052492;28;20067;-89
2021/12/21 02:55:18;;;;;;;2.28;1.77;;;18.10;49.80;;;;;;5051555;28;20048;-89
2021/12/21 02:57:43;;;;;;;2.55;1.95;;;18.00;49.80;;;;;;5051275;28;20102;-88
2021/12/21 03:00:10;;;;;;;3.97;2.10;;;18.00;49.80;;;;;;5051415;28;20546;-88
2021/12/21 03:02:36;;;;;;;3.45;2.05;;;18.00;49.80;;;;;;5051202;28;20029;-89
2021/12/21 03:05:03;;;;;;;2.92;1.75;;;18.00;49.90;;;;;;5052378;28;20418;-89
2021/12/21 03:08:02;;;;;;;2.63;1.58;;;18.00;49.90;;;;;;5051451;28;20028;-89
2021/12/21 03:10:23;;;;;;;3.22;2.00;;;17.90;49.90;;;;;;5051965;28;20040;-89
2021/12/21 03:15:15;;;;;;;3.17;1.85;;;17.90;49.90;;;;;;5051949;28;20054;-89
2021/12/21 03:17:41;;;;;;;2.55;1.70;;;17.90;49.90;;;;;;5052229;28;20099;-89
2021/12/21 03:20:07;;;;;;;2.60;1.70;;;17.80;49.90;;;;;;5052236;28;20394;-89
2021/12/21 03:22:33;;;;;;;3.72;1.80;;;17.90;50.00;;;;;;5052017;28;20323;-89
2021/12/21 03:24:58;;;;;;;3.40;2.05;;;17.80;50.00;;;;;;5051007;28;20025;-89
2021/12/21 03:27:24;;;;;;;4.03;1.90;;;17.80;50.00;;;;;;5052000;28;20108;-89
2021/12/21 03:29:49;;;;;;;3.03;1.95;;;17.80;50.00;;;;;;5050828;28;20036;-89
2021/12/21 03:32:15;;;;;;;2.20;1.60;;;17.80;50.00;;;;;;5051753;28;20072;-89
2021/12/21 03:34:41;;;;;;;2.55;1.88;;;17.70;50.00;;;;;;5050694;28;20086;-89
2021/12/21 03:37:12;;;;;;;3.70;2.22;;;17.70;50.00;;;;;;5050827;28;20028;-89
2021/12/21 03:39:39;;;;;;;2.50;1.80;;;17.70;50.00;;;;;;5051900;28;20024;-89
2021/12/21 03:42:05;;;;;;;2.28;1.88;;;17.70;50.00;;;;;;5051894;28;20108;-89
2021/12/21 03:44:31;;;;;;;2.42;1.65;;;17.70;50.10;;;;;;5050665;28;20033;-89
2021/12/21 03:46:57;;;;;;;2.97;1.95;;;17.60;50.10;;;;;;5051837;28;20035;-89
2021/12/21 03:52:06;;;;;;;2.85;2.00;;;17.60;50.10;;;;;;5051880;28;20033;-89
2021/12/21 03:54:32;;;;;;;2.78;1.98;;;17.60;50.20;;;;;;5050436;28;20471;-89
2021/12/21 03:57:00;;;;;;;2.20;1.70;;;17.60;50.30;;;;;;5050624;28;20154;-88
2021/12/21 03:59:25;;;;;;;2.92;2.00;;;17.50;50.20;;;;;;5051680;28;20104;-89
2021/12/21 04:01:51;;;;;;;3.03;1.77;;;17.50;50.20;;;;;;5050633;28;20120;-88
2021/12/21 04:04:18;;;;;;;2.63;1.80;;;17.50;50.20;;;;;;5050558;28;20039;-89
2021/12/21 04:06:45;;;;;;;2.88;1.80;;;17.50;50.30;;;;;;5050550;28;20025;-88
2021/12/21 04:09:11;;;;;;;2.30;1.80;;;17.50;50.30;;;;;;5050456;28;20371;-88
2021/12/21 04:11:37;;;;;;;4.28;2.08;;;17.40;50.20;;;;;;5050282;28;20127;-89
2021/12/21 04:14:03;;;;;;;2.47;1.83;;;17.40;50.20;;;;;;5051792;28;20032;-89
2021/12/21 04:16:29;;;;;;;2.63;1.63;;;17.40;50.30;;;;;;5051638;28;20029;-89
2021/12/21 04:18:55;;;;;;;2.97;1.65;;;17.40;50.30;;;;;;5051795;28;20066;-89
2021/12/21 04:21:20;;;;;;;2.72;1.92;;;17.40;50.30;;;;;;5050429;28;20021;-89
2021/12/21 04:23:46;;;;;;;3.03;1.77;;;17.40;50.40;;;;;;5051321;28;20386;-89
2021/12/21 04:26:15;;;;;;;2.50;1.67;;;17.30;50.30;;;;;;5051542;28;20375;-89
2021/12/21 04:28:41;;;;;;;2.63;1.95;;;17.30;50.40;;;;;;5051387;28;20079;-89
2021/12/21 04:31:09;;;;;;;2.72;1.73;;;17.30;50.40;;;;;;5051451;28;20112;-89
2021/12/21 04:33:35;;;;;;;3.15;1.80;;;17.30;50.40;;;;;;5051479;28;20427;-89
2021/12/21 04:36:01;;;;;;;2.55;1.95;;;17.30;50.40;;;;;;5050287;28;20228;-89
2021/12/21 04:38:37;;;;;;;2.83;2.00;;;17.30;50.40;;;;;;5050357;28;20028;-88
2021/12/21 04:41:11;;;;;;;2.85;1.70;;;17.20;50.40;;;;;;5050107;28;20025;-88
2021/12/21 04:43:37;;;;;;;1.88;1.60;;;17.20;50.50;;;;;;5051799;28;20021;-87
2021/12/21 04:46:03;;;;;;;2.63;1.63;;;17.20;50.50;;;;;;5054993;28;20043;-88
2021/12/21 04:48:29;;;;;;;2.20;1.80;;;17.20;50.50;;;;;;5053750;28;20049;-88
2021/12/21 04:50:54;;;;;;;3.35;1.83;;;17.20;50.60;;;;;;5055083;28;20108;-87
2021/12/21 04:53:21;;;;;;;3.45;1.83;;;17.10;50.50;;;;;;5054937;28;20545;-88
2021/12/21 04:55:47;;;;;;;2.65;1.80;;;17.10;50.50;;;;;;5054857;28;20017;-88
2021/12/21 04:58:13;;;;;;;3.38;2.08;;;17.10;50.60;;;;;;5054835;28;20497;-88
2021/12/21 05:00:40;;;;;;;2.95;2.00;;;17.10;50.50;;;;;;5053495;28;20101;-88
2021/12/21 05:03:06;;;;;;;3.25;1.88;;;17.10;50.60;;;;;;5053492;28;20024;-88
2021/12/21 05:05:32;;;;;;;2.28;1.50;;;17.10;51.60;;;;;;5054798;28;20025;-87
2021/12/21 05:08:09;;;;;;;2.63;1.88;;;17.00;50.50;;;;;;5054840;28;20462;-88
2021/12/21 05:10:50;;;;;;;2.80;1.90;;;17.10;50.70;;;;;;5053368;28;20048;-88
2021/12/21 05:13:18;;;;;;;1.98;1.63;;;17.00;50.60;;;;;;5053341;28;20052;-87
2021/12/21 05:15:45;;;;;;;2.83;1.70;;;17.00;50.70;;;;;;5054759;28;20017;-88
2021/12/21 05:18:11;;;;;;;2.25;1.80;;;17.00;50.70;;;;;;5054502;28;20021;-87
2021/12/21 05:20:38;;;;;;;2.30;1.58;;;17.00;50.70;;;;;;5053042;28;20166;-88
2021/12/21 05:23:04;;;;;;;2.03;1.60;;;16.90;50.70;;;;;;5054475;28;20029;-87
2021/12/21 05:25:31;;;;;;;3.88;1.60;;;16.90;50.70;;;;;;5054151;28;20025;-88
2021/12/21 05:27:57;;;;;;;2.97;1.80;;;16.90;50.70;;;;;;5054586;28;20025;-88
2021/12/21 05:30:23;;;;;;;2.15;1.60;;;16.90;50.70;;;;;;5053927;28;20120;-88
2021/12/21 05:32:50;;;;;;;2.38;1.52;;;16.90;50.70;;;;;;5054401;28;20021;-88
2021/12/21 05:35:16;;;;;;;3.08;2.05;;;16.90;50.80;;;;;;5054105;28;20344;-88
2021/12/21 05:37:42;;;;;;;2.97;1.73;;;16.80;50.70;;;;;;5052928;28;20067;-88
2021/12/21 05:40:10;;;;;;;2.60;1.80;;;16.80;50.80;;;;;;5052961;28;20501;-87
2021/12/21 05:42:36;;;;;;;2.58;1.70;;;16.80;50.80;;;;;;5052681;28;20025;-87
2021/12/21 05:45:03;;;;;;;2.67;1.60;;;16.80;50.80;;;;;;5052966;28;20032;-87
2021/12/21 05:47:29;;;;;;;2.03;1.70;;;16.80;50.80;;;;;;5052426;28;20102;-87
2021/12/21 05:49:54;;;;;;;2.30;1.73;;;16.80;50.80;;;;;;5052829;28;20025;-87
2021/12/21 05:52:20;;;;;;;2.25;1.60;;;16.80;50.80;;;;;;5053848;28;20025;-87
2021/12/21 05:54:45;;;;;;;1.52;1.40;;;16.80;50.90;;;;;;5053829;28;20025;-87
2021/12/21 05:57:11;;;;;;;1.80;1.42;;;16.70;50.90;;;;;;5052632;28;20487;-87
2021/12/21 05:59:37;;;;;;;1.90;1.50;;;16.70;50.90;;;;;;5053680;28;20192;-87
2021/12/21 06:02:03;;;;;;;1.92;1.42;;;16.70;50.90;;;;;;5053623;28;20029;-87
2021/12/21 06:04:29;;;;;;;2.55;1.58;;;16.70;50.90;;;;;;5052596;28;20025;-87
2021/12/21 06:06:54;;;;;;;2.03;1.40;;;16.70;50.90;;;;;;5052484;28;20039;-88
2021/12/21 06:09:20;;;;;;;2.20;1.50;;;16.70;50.90;;;;;;5053533;28;20029;-87
2021/12/21 06:27:51;;;;;;;2.33;1.80;;;16.60;51.20;;;;;;5053386;28;20035;-88
2021/12/21 06:30:17;;;;;;;2.65;1.58;;;16.70;51.30;;;;;;5053136;28;20025;-87
2021/12/21 06:32:43;;;;;;;2.08;1.42;;;16.80;51.30;;;;;;5051650;28;20036;-88
2021/12/21 06:35:09;;;;;;;2.08;1.45;;;16.80;51.20;;;;;;5053099;28;20021;-88
2021/12/21 06:37:35;;;;;;;2.42;1.50;;;16.90;51.10;;;;;;5051691;28;20029;-88
2021/12/21 06:40:01;;;;;;;2.05;1.42;;;17.10;51.00;;;;;;5052812;28;20086;-88
2021/12/21 06:42:28;;;;;;;2.10;1.60;;;17.20;50.90;;;;;;5052954;28;20025;-88
2021/12/21 06:44:54;;;;;;;3.63;1.67;;;17.30;50.70;;;;;;5051490;28;20100;-88
2021/12/21 06:52:50;;;;;;;2.33;1.50;;;17.90;49.90;;;;;;5053096;28;20143;-88
2021/12/21 06:55:16;;;;;;;1.98;1.40;;;18.10;49.60;;;;;;5052642;28;20056;-88
2021/12/21 06:57:43;;;;;;;1.73;1.30;;;18.20;49.20;;;;;;5052632;28;20071;-88
2021/12/21 07:00:14;;;;;;;2.00;1.30;;;18.50;49.00;;;;;;5051380;28;20067;-88
2021/12/21 07:02:41;;;;;;;1.90;1.40;;;18.60;48.60;;;;;;5051324;28;20021;-88
2021/12/21 07:05:07;;;;;;;1.80;1.45;;;18.80;48.50;;;;;;5051397;28;20033;-88
2021/12/21 07:07:33;;;;;;;1.60;1.35;;;19.00;48.10;;;;;;5050501;28;20029;-88
2021/12/21 07:10:02;;;;;;;3.22;1.30;;;19.10;47.90;;;;;;5051368;28;20742;-86
2021/12/21 07:20:27;;;;;;;4.07;1.52;;;19.60;46.50;;;;;;5052509;28;20048;-85
2021/12/21 07:22:53;;;;;;;2.75;1.70;;;19.70;46.20;;;;;;5052047;28;20425;-85
2021/12/21 07:25:19;;;;;;;2.42;1.65;;;19.80;45.90;;;;;;5052185;28;20060;-85
2021/12/21 07:27:44;;;;;;;3.38;1.73;;;19.90;45.70;;;;;;5052195;28;20036;-85
2021/12/21 07:30:11;;;;;;;2.13;1.40;;;19.90;46.60;;;;;;5051905;28;20074;-85
2021/12/21 07:32:37;;;;;;;2.58;1.80;;;20.00;45.40;;;;;;5052163;28;20025;-85
2021/12/21 07:35:03;;;;;;;4.00;1.70;;;20.00;45.20;;;;;;5051942;28;20021;-85
2021/12/21 07:37:29;;;;;;;2.72;1.63;;;20.10;45.10;;;;;;5052116;28;20025;-85
2021/12/21 07:39:55;;;;;;;4.82;1.50;;;20.10;45.00;;;;;;5051934;28;20021;-86
2021/12/21 07:42:21;;;;;;;2.58;1.60;;;20.20;44.90;;;;;;5050952;28;20086;-85
2021/12/21 07:44:48;;;;;;;3.78;1.73;;;20.20;44.90;;;;;;5052308;28;20025;-85
2021/12/21 07:47:14;;;;;;;3.50;1.52;;;20.20;44.90;;;;;;5050933;28;20644;-84
2021/12/21 07:49:39;;;;;;;5.10;1.70;;;20.20;44.90;;;;;;5051692;28;20108;-84
2021/12/21 07:52:09;;;;;;;6.20;1.60;;;20.30;44.90;;;;;;5051759;28;20092;-85
2021/12/21 07:54:35;;;;;;;4.22;1.60;;;20.30;44.80;;;;;;5051941;28;20025;-84
2021/12/21 07:57:01;;;;;;;4.78;1.75;;;20.30;44.80;;;;;;5051806;28;20053;-85
2021/12/21 07:59:27;;;;;;;2.65;1.65;;;20.30;44.60;;;;;;5050702;28;20060;-85
2021/12/21 08:01:53;;;;;;;4.43;1.60;;;20.30;44.60;;;;;;5050649;28;20092;-84
2021/12/21 08:04:27;;;;;;;3.95;1.50;;;20.30;44.50;;;;;;5051642;28;20036;-85
2021/12/21 08:06:54;;;;;;;4.15;1.80;;;20.30;44.50;;;;;;5051786;28;20035;-85
2021/12/21 08:09:20;;;;;;;3.33;1.52;;;20.30;44.40;;;;;;5051728;28;20033;-85
2021/12/21 08:14:30;;;;;;;2.83;1.98;;;20.30;44.40;;;;;;5051850;28;20043;-85
2021/12/21 08:16:56;;;;;;;6.18;1.90;;;20.30;44.40;;;;;;5051589;28;20470;-85
2021/12/21 08:19:21;;;;;;;3.05;1.60;;;20.30;44.30;;;;;;5053512;28;20443;-86
2021/12/21 08:21:47;;;;;;;2.50;1.60;;;20.30;44.20;;;;;;5055473;28;20518;-86
2021/12/21 08:24:13;;;;;;;6.15;1.85;;;20.30;44.20;;;;;;5055429;28;20367;-86
2021/12/21 08:26:38;;;;;;;3.58;1.50;;;20.30;44.20;;;;;;5055378;28;20031;-86
2021/12/21 08:29:04;;;;;;;3.22;1.67;;;20.30;44.30;;;;;;5055314;28;20084;-87
2021/12/21 08:31:29;;;;;;;4.95;1.92;;;20.30;44.40;;;;;;5055407;28;20433;-87
2021/12/21 08:33:55;;;;;;;4.38;1.70;;;20.30;44.40;;;;;;5055539;28;20025;-86
2021/12/21 08:36:21;;;;;;;2.95;1.55;;;20.30;44.50;;;;;;5055228;28;20040;-86
2021/12/21 08:38:46;;;;;;;2.53;1.50;;;20.30;44.50;;;;;;5055261;28;20044;-86
2021/12/21 08:41:12;;;;;;;4.05;1.65;;;20.30;44.60;;;;;;5053884;28;20036;-86
2021/12/21 08:43:38;;;;;;;5.35;1.98;;;20.30;44.60;;;;;;5054036;28;20120;-86
2021/12/21 08:46:07;;;;;;;4.55;1.70;;;20.30;44.60;;;;;;5055239;28;20043;-86
2021/12/21 08:48:32;;;;;;;5.40;2.10;;;20.20;44.50;;;;;;5055134;28;20129;-86
2021/12/21 08:50:58;;;;;;;4.43;1.70;;;20.20;44.60;;;;;;5055383;28;20103;-85
2021/12/21 08:53:24;;;;;;;5.32;1.52;;;20.20;44.70;;;;;;5055216;28;20376;-86
2021/12/21 08:55:54;;;;;;;6.55;1.80;;;20.20;44.90;;;;;;5055153;28;20021;-86
2021/12/21 08:58:19;;;;;;;2.70;1.73;;;20.30;44.80;;;;;;5054866;28;20105;-86
2021/12/21 09:00:46;;;;;;;7.32;1.90;;;20.20;44.80;;;;;;5054968;28;20100;-86
2021/12/21 09:03:12;;;;;;;3.85;1.75;;;20.20;44.90;;;;;;5053812;28;20025;-90
2021/12/21 09:05:39;;;;;;;4.78;1.63;;;20.30;45.00;;;;;;5037455;28;20079;-89
2021/12/21 09:08:06;;;;;;;4.65;1.63;;;20.30;45.00;;;;;;5053727;28;20106;-88
2021/12/21 09:10:33;;;;;;;5.18;1.60;;;20.30;44.90;;;;;;5053350;28;20033;-88
2021/12/21 09:13:00;;;;;;;4.38;1.63;;;20.30;45.00;;;;;;5036981;28;20035;-89
2021/12/21 09:15:31;;;;;;;6.03;1.65;;;20.30;44.80;;;;;;5053530;28;20064;-89
2021/12/21 09:17:57;;;;;;;6.70;1.80;;;20.30;44.70;;;;;;5036794;28;20032;-88
2021/12/21 09:20:25;;;;;;;4.95;1.67;;;20.30;44.70;;;;;;5053224;28;20033;-89
2021/12/21 09:22:52;;;;;;;4.00;1.55;;;20.30;44.60;;;;;;5036896;28;20477;-88
2021/12/21 09:25:18;;;;;;;8.55;1.80;;;20.30;44.60;;;;;;5036468;28;20029;-89
2021/12/21 09:27:44;;;;;;;4.57;1.63;;;20.30;44.50;;;;;;5054278;28;20018;-88
2021/12/21 09:30:13;;;;;;;3.38;1.60;;;20.30;45.50;;;;;;5052700;28;20478;-88
2021/12/21 09:32:39;;;;;;;5.45;1.77;;;20.30;44.40;;;;;;5036437;28;20033;-87
2021/12/21 09:35:05;;;;;;;3.88;1.83;;;20.30;44.40;;;;;;5054158;28;20032;-87
2021/12/21 09:37:32;;;;;;;9.15;1.98;;;20.40;44.50;;;;;;5054221;28;20100;-87
2021/12/21 09:39:58;;;;;;;10.00;2.22;;;20.30;44.40;;;;;;5052954;28;20029;-87
2021/12/21 09:42:31;;;;;;;6.95;2.10;;;20.40;44.50;;;;;;5052730;28;20024;-87
2021/12/21 09:44:59;;;;;;;6.18;2.03;;;20.40;44.50;;;;;;5052828;28;20077;-88
2021/12/21 09:47:26;;;;;;;7.18;2.15;;;20.40;44.50;;;;;;5053709;28;20112;-89
2021/12/21 09:49:52;;;;;;;8.65;2.13;;;20.40;44.60;;;;;;5053278;28;20174;-86
2021/12/21 09:52:21;;;;;;;13.25;2.25;;;20.40;44.60;;;;;;5054156;28;20032;-86
2021/12/21 09:54:49;;;;;;;11.70;2.15;;;20.40;44.60;;;;;;5054614;28;20072;-86
2021/12/21 09:57:17;;;;;;;10.60;2.15;;;20.40;44.60;;;;;;5054025;28;20052;-86
2021/12/21 09:59:47;;;;;;;7.40;1.80;;;20.40;44.60;;;;;;5053672;28;20456;-86
2021/12/21 10:02:17;;;;;;;9.23;2.10;;;20.40;44.60;;;;;;5053593;28;20021;-86
2021/12/21 10:04:56;;;;;;;7.50;1.70;;;20.40;44.70;;;;;;5051175;28;20021;-85
2021/12/21 10:07:22;;;;;;;5.05;1.80;;;20.50;44.80;;;;;;5053881;28;20529;-86
2021/12/21 10:09:50;;;;;;;9.48;2.03;;;20.40;44.80;;;;;;5049840;28;20495;-86
2021/12/21 10:12:30;;;;;;;5.93;1.77;;;20.40;44.80;;;;;;5053410;28;20053;-86
2021/12/21 10:15:10;;;;;;;8.55;1.92;;;20.50;44.80;;;;;;5053430;28;20027;-85
2021/12/21 10:17:37;;;;;;;6.80;2.00;;;20.50;44.90;;;;;;5053560;28;20104;-85
2021/12/21 10:20:08;;;;;;;6.07;1.60;;;20.40;44.90;;;;;;5053289;28;20025;-85
2021/12/21 10:22:47;;;;;;;4.65;1.50;;;20.40;45.90;;;;;;5053334;28;20028;-86
2021/12/21 10:25:24;;;;;;;5.55;1.58;;;20.50;45.00;;;;;;5053457;28;20025;-86
2021/12/21 10:27:50;;;;;;;5.70;1.60;;;20.40;44.90;;;;;;5053443;28;20107;-86
2021/12/21 10:30:16;;;;;;;7.53;1.80;;;20.40;45.10;;;;;;5052901;28;20151;-86
2021/12/21 10:32:51;;;;;;;7.03;1.65;;;20.40;45.10;;;;;;5053075;28;20060;-87
2021/12/21 10:35:17;;;;;;;5.25;1.63;;;20.40;45.00;;;;;;5053067;28;20513;-87
2021/12/21 10:37:43;;;;;;;4.30;1.60;;;20.40;45.10;;;;;;5053373;28;20021;-87
2021/12/21 10:40:27;;;;;;;4.72;1.85;;;20.40;45.10;;;;;;5053015;28;20024;-87
2021/12/21 10:43:03;;;;;;;4.68;1.50;;;20.40;45.10;;;;;;5052286;28;20096;-87
2021/12/21 10:45:39;;;;;;;5.65;1.88;;;20.40;45.10;;;;;;5053040;28;20544;-87
2021/12/21 10:48:07;;;;;;;4.38;1.77;;;20.40;45.10;;;;;;5067921;28;20053;-87
2021/12/21 10:50:34;;;;;;;5.80;1.80;;;20.40;45.20;;;;;;5051574;28;20470;-87
2021/12/21 10:53:02;;;;;;;5.38;1.60;;;20.40;45.30;;;;;;5052477;28;20390;-87
2021/12/21 10:55:37;;;;;;;4.35;1.70;;;20.40;45.20;;;;;;5052787;28;20383;-85
2021/12/21 10:58:15;;;;;;;6.15;1.70;;;20.40;45.30;;;;;;5052352;28;20017;-86
2021/12/21 11:00:44;;;;;;;3.05;1.48;;;20.40;45.30;;;;;;5052581;28;20489;-86
2021/12/21 11:03:12;;;;;;;2.55;1.35;;;20.40;45.30;;;;;;5054071;28;20463;-86
2021/12/21 11:05:38;;;;;;;5.57;1.70;;;20.30;45.30;;;;;;5051564;28;20470;-87
2021/12/21 11:08:14;;;;;;;4.22;1.52;;;20.40;45.50;;;;;;5052532;28;20025;-86
2021/12/21 11:10:47;;;;;;;8.85;2.30;;;20.40;45.30;;;;;;5052537;28;20033;-87
2021/12/21 11:13:15;;;;;;;6.78;2.58;;;20.30;45.30;;;;;;5052452;28;20430;-84
2021/12/21 11:15:43;;;;;;;7.75;3.20;;;20.40;45.30;;;;;;5052360;28;20486;-86
2021/12/21 11:18:13;;;;;;;8.40;4.43;;;20.40;45.30;;;;;;5052274;28;20021;-85
2021/12/21 11:20:42;;;;;;;16.58;5.18;;;20.40;45.30;;;;;;5067611;28;20441;-86
2021/12/21 11:23:10;;;;;;;10.93;5.32;;;20.40;45.50;;;;;;5051020;28;20032;-86
2021/12/21 11:25:36;;;;;;;12.90;5.90;;;20.40;45.30;;;;;;5052209;28;20029;-86
2021/12/21 11:28:05;;;;;;;12.07;6.05;;;20.40;45.40;;;;;;5051240;28;20478;-86
2021/12/21 11:30:34;;;;;;;13.27;6.07;;;20.40;45.40;;;;;;5050713;28;20037;-86
2021/12/21 11:33:06;;;;;;;12.45;6.07;;;20.40;45.40;;;;;;5052664;28;20032;-85
2021/12/21 11:38:01;;;;;;;12.70;6.07;;;20.40;45.40;;;;;;5052423;28;20029;-85
2021/12/21 11:40:33;;;;;;;13.10;7.07;;;20.40;45.40;;;;;;5052021;28;20025;-86
2021/12/21 11:43:11;;;;;;;14.43;6.63;;;20.40;45.30;;;;;;5052349;28;20063;-85
2021/12/21 11:45:50;;;;;;;12.60;7.00;;;20.40;46.40;;;;;;5052066;28;20029;-86
2021/12/21 11:48:26;;;;;;;14.02;6.88;;;20.40;45.40;;;;;;5051974;28;20037;-86
2021/12/21 11:50:52;;;;;;;10.95;6.85;;;20.40;45.40;;;;;;5050765;28;20115;-85
2021/12/21 11:53:19;;;;;;;13.43;6.85;;;20.40;45.30;;;;;;5053644;28;20463;-86
2021/12/21 11:55:47;;;;;;;12.00;7.00;;;20.40;45.30;;;;;;5058629;28;20025;-86
2021/12/21 11:58:26;;;;;;;12.40;7.03;;;20.40;45.30;;;;;;5058687;28;20013;-86
2021/12/21 12:00:57;;;;;;;13.77;7.22;;;20.40;45.30;;;;;;5057537;28;20507;-86
2021/12/21 12:03:25;;;;;;;12.00;6.88;;;20.40;45.30;;;;;;5058678;28;20162;-86
2021/12/21 12:06:03;;;;;;;12.52;6.82;;;20.40;45.30;;;;;;5058430;28;20025;-86
2021/12/21 12:08:55;;;;;;;11.02;6.22;;;20.40;45.30;;;;;;5058454;28;20021;-86
2021/12/21 12:11:35;;;;;;;10.27;6.68;;;20.40;45.20;;;;;;5058223;28;20036;-86
2021/12/21 12:14:28;;;;;;;9.35;6.20;;;20.40;45.20;;;;;;5057105;28;20021;-85
2021/12/21 12:16:56;;;;;;;13.30;6.38;;;20.40;45.10;;;;;;5058552;28;20021;-86
2021/12/21 12:19:31;;;;;;;11.20;5.75;;;20.40;45.20;;;;;;5058391;28;20029;-87
2021/12/21 12:22:04;;;;;;;9.80;6.38;;;20.50;45.20;;;;;;5058719;28;20028;-86
2021/12/21 12:24:38;;;;;;;11.63;6.35;;;20.50;45.20;;;;;;5058369;28;20379;-87
2021/12/21 12:27:17;;;;;;;12.30;6.20;;;20.50;45.20;;;;;;5058438;28;20039;-86
2021/12/21 12:29:48;;;;;;;12.25;6.38;;;20.50;45.20;;;;;;5058483;28;20025;-86
2021/12/21 12:32:15;;;;;;;10.20;6.18;;;20.50;45.20;;;;;;5056858;28;20025;-86
2021/12/21 12:34:42;;;;;;;10.05;6.00;;;20.50;45.10;;;;;;5058268;28;20021;-86
2021/12/21 12:37:24;;;;;;;9.27;5.82;;;20.50;45.10;;;;;;5057082;28;20032;-86
2021/12/21 12:39:59;;;;;;;10.32;5.63;;;20.50;45.10;;;;;;5057301;28;20406;-86
2021/12/21 12:42:28;;;;;;;7.70;5.47;;;20.50;45.10;;;;;;5058207;28;20029;-87
2021/12/21 12:45:15;;;;;;;9.13;5.20;;;20.50;45.10;;;;;;5056687;28;20032;-86
2021/12/21 12:47:46;;;;;;;9.15;5.05;;;20.50;45.10;;;;;;5057943;28;20391;-86
2021/12/21 12:50:29;;;;;;;9.80;5.55;;;20.50;45.10;;;;;;5056969;28;20021;-87
2021/12/21 12:53:03;;;;;;;9.77;5.35;;;20.50;45.10;;;;;;5057133;28;20049;-87
2021/12/21 12:55:41;;;;;;;10.05;5.20;;;20.50;45.00;;;;;;5057908;28;20032;-87
2021/12/21 12:58:19;;;;;;;8.45;5.15;;;20.50;45.00;;;;;;5056674;28;20467;-87
2021/12/21 13:00:45;;;;;;;8.70;5.30;;;20.60;45.10;;;;;;5056909;28;20076;-86
2021/12/21 13:03:12;;;;;;;9.32;5.35;;;20.60;45.10;;;;;;5056543;28;20035;-88
2021/12/21 13:05:54;;;;;;;10.05;5.68;;;20.60;45.10;;;;;;5054032;28;20490;-89
2021/12/21 13:08:22;;;;;;;11.02;6.53;;;20.60;45.10;;;;;;5054368;28;20035;-91
2021/12/21 13:10:51;;;;;;;12.27;7.00;;;20.60;44.80;;;;;;5054319;28;20478;-89
2021/12/21 13:13:20;;;;;;;17.40;7.50;;;20.60;44.40;;;;;;5054054;28;20132;-91
2021/12/21 13:15:50;;;;;;;15.52;7.13;;;20.60;44.20;;;;;;5054108;28;20024;-90
2021/12/21 13:18:18;;;;;;;14.88;7.10;;;20.60;44.00;;;;;;5054194;28;20462;-90
2021/12/21 13:20:48;;;;;;;14.88;7.35;;;20.60;44.00;;;;;;5055217;28;20432;-90
2021/12/21 13:23:16;;;;;;;15.75;7.50;;;20.60;43.90;;;;;;5055144;28;20025;-90
2021/12/21 13:26:00;;;;;;;14.57;6.78;;;20.60;43.70;;;;;;5053689;28;20120;-92
2021/12/21 13:28:27;;;;;;;13.65;8.00;;;20.60;43.70;;;;;;5053995;28;20112;-92
2021/12/21 13:30:57;;;;;;;13.70;6.90;;;20.60;43.70;;;;;;5053801;28;20033;-90
2021/12/21 13:33:25;;;;;;;11.52;6.38;;;20.60;43.70;;;;;;5053906;28;20486;-92
2021/12/21 13:35:52;;;;;;;11.43;6.20;;;20.50;43.50;;;;;;5053918;28;20359;-92
2021/12/21 13:38:20;;;;;;;15.30;6.90;;;20.50;43.60;;;;;;5053803;28;20033;-91
2021/12/21 13:41:07;;;;;;;12.45;6.50;;;20.50;43.60;;;;;;5053906;28;20037;-90
2021/12/21 13:43:35;;;;;;;14.02;6.68;;;20.50;43.50;;;;;;5053617;28;20029;-90
2021/12/21 13:46:06;;;;;;;11.85;5.50;;;20.50;43.60;;;;;;5054716;28;20036;-90
2021/12/21 13:48:33;;;;;;;11.02;5.25;;;20.50;44.50;;;;;;5053318;28;20124;-91
2021/12/21 13:51:16;;;;;;;10.27;5.88;;;20.50;43.50;;;;;;5053459;28;20513;-89
2021/12/21 13:53:43;;;;;;;;;;;20.50;43.40;;;;;;5053921;28;20029;-90
2021/12/21 13:56:24;;;;;;;8.65;5.60;;;20.50;43.70;;;;;;5054535;28;20362;-92
2021/12/21 13:58:54;;;;;;;13.98;6.28;;;20.40;43.60;;;;;;5052827;28;20553;-91
2021/12/21 14:01:32;;;;;;;11.52;5.78;;;20.40;43.60;;;;;;5053127;28;20389;-91
2021/12/21 14:04:03;;;;;;;9.60;5.00;;;20.50;43.50;;;;;;5053442;28;20052;-90
2021/12/21 14:06:29;;;;;;;11.52;5.60;;;20.40;43.60;;;;;;5054483;28;20048;-89
2021/12/21 14:08:58;;;;;;;8.75;5.30;;;20.40;43.50;;;;;;5054576;28;20021;-90